sensor_id;sensor_type;location;lat;lon;timestamp;P1;durP1;ratioP1;P2;durP2;ratioP2
56455;SDS011;42354;53.218;6.564;2022-11-11T00:00:24;20.65;;;7.90;;
56455;SDS011;42354;53.218;6.564;2022-11-11T00:02:49;16.83;;;7.57;;
56455;SDS011;42354;53.218;6.564;2022-11-11T00:05:15;18.60;;;7.57;;
56455;SDS011;42354;53.218;6.564;2022-11-11T00:07:41;17.23;;;8.02;;
56455;SDS011;42354;53.218;6.564;2022-11-11T00:10:07;16.98;;;8.25;;
56455;SDS011;42354;53.218;6.564;2022-11-11T00:12:33;21.83;;;8.90;;
56455;SDS011;42354;53.218;6.564;2022-11-11T00:14:58;18.73;;;8.25;;
56455;SDS011;42354;53.218;6.564;2022-11-11T00:17:24;18.90;;;8.07;;
56455;SDS011;42354;53.218;6.564;2022-11-11T00:20:11;20.60;;;8.30;;
56455;SDS011;42354;53.218;6.564;2022-11-11T00:22:55;22.85;;;8.88;;
56455;SDS011;42354;53.218;6.564;2022-11-11T00:25:39;19.45;;;8.35;;
56455;SDS011;42354;53.218;6.564;2022-11-11T00:28:05;22.13;;;9.73;;
56455;SDS011;42354;53.218;6.564;2022-11-11T00:30:30;24.40;;;9.57;;
56455;SDS011;42354;53.218;6.564;2022-11-11T00:32:56;21.30;;;9.32;;
56455;SDS011;42354;53.218;6.564;2022-11-11T00:35:21;18.05;;;9.23;;
56455;SDS011;42354;53.218;6.564;2022-11-11T00:38:09;23.35;;;9.02;;
56455;SDS011;42354;53.218;6.564;2022-11-11T00:40:56;24.67;;;9.20;;
56455;SDS011;42354;53.218;6.564;2022-11-11T00:43:21;17.58;;;8.65;;
56455;SDS011;42354;53.218;6.564;2022-11-11T00:45:46;20.33;;;9.52;;
56455;SDS011;42354;53.218;6.564;2022-11-11T00:48:12;18.00;;;9.20;;
56455;SDS011;42354;53.218;6.564;2022-11-11T00:50:56;22.45;;;8.10;;
56455;SDS011;42354;53.218;6.564;2022-11-11T00:53:25;20.58;;;9.30;;
56455;SDS011;42354;53.218;6.564;2022-11-11T00:55:52;26.20;;;9.55;;
56455;SDS011;42354;53.218;6.564;2022-11-11T00:58:17;20.50;;;9.23;;
56455;SDS011;42354;53.218;6.564;2022-11-11T01:00:43;22.65;;;9.13;;
56455;SDS011;42354;53.218;6.564;2022-11-11T01:03:09;16.55;;;8.70;;
56455;SDS011;42354;53.218;6.564;2022-11-11T01:05:37;24.60;;;9.23;;
56455;SDS011;42354;53.218;6.564;2022-11-11T01:08:02;14.90;;;8.35;;
56455;SDS011;42354;53.218;6.564;2022-11-11T01:10:28;22.65;;;9.85;;
56455;SDS011;42354;53.218;6.564;2022-11-11T01:13:03;21.02;;;8.98;;
56455;SDS011;42354;53.218;6.564;2022-11-11T01:15:42;19.88;;;9.73;;
56455;SDS011;42354;53.218;6.564;2022-11-11T01:18:10;17.67;;;9.07;;
56455;SDS011;42354;53.218;6.564;2022-11-11T01:20:38;22.35;;;9.52;;
56455;SDS011;42354;53.218;6.564;2022-11-11T01:23:08;21.17;;;10.15;;
56455;SDS011;42354;53.218;6.564;2022-11-11T01:25:36;25.23;;;9.93;;
56455;SDS011;42354;53.218;6.564;2022-11-11T01:28:03;23.10;;;9.63;;
56455;SDS011;42354;53.218;6.564;2022-11-11T01:30:31;25.05;;;10.02;;
56455;SDS011;42354;53.218;6.564;2022-11-11T01:32:57;18.90;;;10.02;;
56455;SDS011;42354;53.218;6.564;2022-11-11T01:35:23;20.48;;;9.50;;
56455;SDS011;42354;53.218;6.564;2022-11-11T01:37:49;19.85;;;9.40;;
56455;SDS011;42354;53.218;6.564;2022-11-11T01:40:15;23.65;;;11.27;;
56455;SDS011;42354;53.218;6.564;2022-11-11T01:48:10;25.10;;;9.95;;
56455;SDS011;42354;53.218;6.564;2022-11-11T01:51:01;23.02;;;9.70;;
56455;SDS011;42354;53.218;6.564;2022-11-11T01:53:29;21.77;;;9.38;;
56455;SDS011;42354;53.218;6.564;2022-11-11T01:55:55;25.33;;;10.27;;
56455;SDS011;42354;53.218;6.564;2022-11-11T01:58:22;20.30;;;10.27;;
56455;SDS011;42354;53.218;6.564;2022-11-11T02:00:48;25.80;;;10.68;;
56455;SDS011;42354;53.218;6.564;2022-11-11T02:03:13;22.70;;;10.25;;
56455;SDS011;42354;53.218;6.564;2022-11-11T02:05:39;24.80;;;11.45;;
56455;SDS011;42354;53.218;6.564;2022-11-11T02:08:11;22.23;;;10.55;;
56455;SDS011;42354;53.218;6.564;2022-11-11T02:10:56;21.98;;;10.05;;
56455;SDS011;42354;53.218;6.564;2022-11-11T02:13:27;22.73;;;9.73;;
56455;SDS011;42354;53.218;6.564;2022-11-11T02:16:12;20.85;;;10.77;;
56455;SDS011;42354;53.218;6.564;2022-11-11T02:18:38;22.55;;;9.60;;
56455;SDS011;42354;53.218;6.564;2022-11-11T02:21:04;23.73;;;10.27;;
56455;SDS011;42354;53.218;6.564;2022-11-11T02:23:44;25.75;;;11.43;;
56455;SDS011;42354;53.218;6.564;2022-11-11T02:26:33;18.75;;;10.73;;
56455;SDS011;42354;53.218;6.564;2022-11-11T02:29:00;24.58;;;11.15;;
56455;SDS011;42354;53.218;6.564;2022-11-11T02:31:29;23.58;;;10.55;;
56455;SDS011;42354;53.218;6.564;2022-11-11T02:33:56;24.02;;;10.95;;
56455;SDS011;42354;53.218;6.564;2022-11-11T02:36:21;29.13;;;11.85;;
56455;SDS011;42354;53.218;6.564;2022-11-11T02:38:47;23.95;;;10.82;;
56455;SDS011;42354;53.218;6.564;2022-11-11T02:41:13;26.55;;;12.02;;
56455;SDS011;42354;53.218;6.564;2022-11-11T02:44:14;27.75;;;12.48;;
56455;SDS011;42354;53.218;6.564;2022-11-11T02:46:39;26.20;;;11.35;;
56455;SDS011;42354;53.218;6.564;2022-11-11T02:49:05;24.67;;;12.10;;
56455;SDS011;42354;53.218;6.564;2022-11-11T02:51:30;19.17;;;11.35;;
56455;SDS011;42354;53.218;6.564;2022-11-11T02:53:56;24.95;;;12.80;;
56455;SDS011;42354;53.218;6.564;2022-11-11T02:56:25;29.70;;;13.98;;
56455;SDS011;42354;53.218;6.564;2022-11-11T02:59:10;32.08;;;13.82;;
56455;SDS011;42354;53.218;6.564;2022-11-11T03:01:35;25.88;;;14.10;;
56455;SDS011;42354;53.218;6.564;2022-11-11T03:04:00;30.52;;;14.43;;
56455;SDS011;42354;53.218;6.564;2022-11-11T03:06:26;27.73;;;14.85;;
56455;SDS011;42354;53.218;6.564;2022-11-11T03:08:51;27.85;;;15.40;;
56455;SDS011;42354;53.218;6.564;2022-11-11T03:11:17;30.40;;;15.35;;
56455;SDS011;42354;53.218;6.564;2022-11-11T03:13:52;34.08;;;16.50;;
56455;SDS011;42354;53.218;6.564;2022-11-11T03:16:24;29.20;;;15.68;;
56455;SDS011;42354;53.218;6.564;2022-11-11T03:19:09;29.38;;;16.38;;
56455;SDS011;42354;53.218;6.564;2022-11-11T03:21:34;34.15;;;18.08;;
56455;SDS011;42354;53.218;6.564;2022-11-11T03:24:00;29.17;;;17.65;;
56455;SDS011;42354;53.218;6.564;2022-11-11T03:26:25;31.17;;;16.77;;
56455;SDS011;42354;53.218;6.564;2022-11-11T03:28:51;34.05;;;18.23;;
56455;SDS011;42354;53.218;6.564;2022-11-11T03:31:16;35.58;;;18.60;;
56455;SDS011;42354;53.218;6.564;2022-11-11T03:33:42;32.88;;;18.60;;
56455;SDS011;42354;53.218;6.564;2022-11-11T03:36:08;35.72;;;19.30;;
56455;SDS011;42354;53.218;6.564;2022-11-11T03:38:33;37.80;;;19.27;;
56455;SDS011;42354;53.218;6.564;2022-11-11T03:40:59;33.55;;;19.30;;
56455;SDS011;42354;53.218;6.564;2022-11-11T03:43:26;41.22;;;19.92;;
56455;SDS011;42354;53.218;6.564;2022-11-11T03:45:54;31.65;;;20.50;;
56455;SDS011;42354;53.218;6.564;2022-11-11T03:48:21;37.45;;;21.45;;
56455;SDS011;42354;53.218;6.564;2022-11-11T03:50:48;41.53;;;21.65;;
56455;SDS011;42354;53.218;6.564;2022-11-11T03:53:14;40.20;;;20.67;;
56455;SDS011;42354;53.218;6.564;2022-11-11T03:55:41;40.55;;;20.73;;
56455;SDS011;42354;53.218;6.564;2022-11-11T03:58:06;36.88;;;21.17;;
56455;SDS011;42354;53.218;6.564;2022-11-11T04:00:32;42.70;;;21.58;;
56455;SDS011;42354;53.218;6.564;2022-11-11T04:03:17;44.05;;;21.35;;
56455;SDS011;42354;53.218;6.564;2022-11-11T04:11:43;43.22;;;21.58;;
56455;SDS011;42354;53.218;6.564;2022-11-11T04:14:12;44.25;;;22.00;;
56455;SDS011;42354;53.218;6.564;2022-11-11T04:16:57;38.88;;;20.73;;
56455;SDS011;42354;53.218;6.564;2022-11-11T04:19:23;37.55;;;22.50;;
56455;SDS011;42354;53.218;6.564;2022-11-11T04:22:07;38.67;;;22.35;;
56455;SDS011;42354;53.218;6.564;2022-11-11T04:24:34;40.85;;;22.63;;
56455;SDS011;42354;53.218;6.564;2022-11-11T04:27:18;46.90;;;23.25;;
56455;SDS011;42354;53.218;6.564;2022-11-11T04:29:44;43.22;;;22.02;;
56455;SDS011;42354;53.218;6.564;2022-11-11T04:32:15;41.83;;;23.00;;
56455;SDS011;42354;53.218;6.564;2022-11-11T04:35:06;46.90;;;23.50;;
56455;SDS011;42354;53.218;6.564;2022-11-11T04:37:34;42.22;;;22.38;;
56455;SDS011;42354;53.218;6.564;2022-11-11T04:40:08;38.10;;;22.38;;
56455;SDS011;42354;53.218;6.564;2022-11-11T04:42:52;40.08;;;22.08;;
56455;SDS011;42354;53.218;6.564;2022-11-11T04:45:18;42.63;;;21.75;;
56455;SDS011;42354;53.218;6.564;2022-11-11T04:47:58;35.25;;;21.90;;
56455;SDS011;42354;53.218;6.564;2022-11-11T04:50:27;42.85;;;22.73;;
56455;SDS011;42354;53.218;6.564;2022-11-11T04:52:57;42.83;;;23.17;;
56455;SDS011;42354;53.218;6.564;2022-11-11T04:55:23;42.38;;;22.88;;
56455;SDS011;42354;53.218;6.564;2022-11-11T04:58:08;38.88;;;22.63;;
56455;SDS011;42354;53.218;6.564;2022-11-11T05:00:33;43.22;;;23.42;;
56455;SDS011;42354;53.218;6.564;2022-11-11T05:02:59;42.63;;;23.83;;
56455;SDS011;42354;53.218;6.564;2022-11-11T05:05:46;40.17;;;22.83;;
56455;SDS011;42354;53.218;6.564;2022-11-11T05:08:35;47.97;;;24.80;;
56455;SDS011;42354;53.218;6.564;2022-11-11T05:11:41;44.85;;;23.73;;
56455;SDS011;42354;53.218;6.564;2022-11-11T05:14:06;45.33;;;25.30;;
56455;SDS011;42354;53.218;6.564;2022-11-11T05:16:54;43.28;;;24.85;;
56455;SDS011;42354;53.218;6.564;2022-11-11T05:19:39;49.70;;;25.05;;
56455;SDS011;42354;53.218;6.564;2022-11-11T05:22:26;46.40;;;24.33;;
56455;SDS011;42354;53.218;6.564;2022-11-11T05:24:54;55.58;;;25.10;;
56455;SDS011;42354;53.218;6.564;2022-11-11T05:27:38;46.20;;;24.77;;
56455;SDS011;42354;53.218;6.564;2022-11-11T05:30:04;47.50;;;25.88;;
56455;SDS011;42354;53.218;6.564;2022-11-11T05:32:31;53.92;;;24.70;;
56455;SDS011;42354;53.218;6.564;2022-11-11T05:34:56;51.13;;;25.27;;
56455;SDS011;42354;53.218;6.564;2022-11-11T05:37:22;46.70;;;25.58;;
56455;SDS011;42354;53.218;6.564;2022-11-11T05:39:47;45.28;;;23.58;;
56455;SDS011;42354;53.218;6.564;2022-11-11T05:42:13;51.30;;;25.05;;
56455;SDS011;42354;53.218;6.564;2022-11-11T05:44:38;48.47;;;23.95;;
56455;SDS011;42354;53.218;6.564;2022-11-11T05:47:04;46.67;;;25.27;;
56455;SDS011;42354;53.218;6.564;2022-11-11T05:49:30;46.70;;;25.40;;
56455;SDS011;42354;53.218;6.564;2022-11-11T05:51:55;47.95;;;25.23;;
56455;SDS011;42354;53.218;6.564;2022-11-11T05:54:21;48.35;;;25.73;;
56455;SDS011;42354;53.218;6.564;2022-11-11T05:56:47;47.97;;;25.08;;
56455;SDS011;42354;53.218;6.564;2022-11-11T05:59:13;49.30;;;24.58;;
56455;SDS011;42354;53.218;6.564;2022-11-11T06:01:38;52.65;;;24.63;;
56455;SDS011;42354;53.218;6.564;2022-11-11T06:04:04;48.53;;;24.92;;
56455;SDS011;42354;53.218;6.564;2022-11-11T06:06:30;48.55;;;25.23;;
56455;SDS011;42354;53.218;6.564;2022-11-11T06:08:56;46.85;;;24.55;;
56455;SDS011;42354;53.218;6.564;2022-11-11T06:11:22;44.42;;;24.63;;
56455;SDS011;42354;53.218;6.564;2022-11-11T06:13:48;47.22;;;24.27;;
56455;SDS011;42354;53.218;6.564;2022-11-11T06:16:13;43.50;;;23.35;;
56455;SDS011;42354;53.218;6.564;2022-11-11T06:18:39;46.47;;;24.42;;
56455;SDS011;42354;53.218;6.564;2022-11-11T06:21:05;43.47;;;23.25;;
56455;SDS011;42354;53.218;6.564;2022-11-11T06:23:30;44.53;;;22.77;;
56455;SDS011;42354;53.218;6.564;2022-11-11T06:25:56;44.58;;;23.15;;
56455;SDS011;42354;53.218;6.564;2022-11-11T06:28:40;48.58;;;23.23;;
56455;SDS011;42354;53.218;6.564;2022-11-11T06:31:07;47.78;;;21.50;;
56455;SDS011;42354;53.218;6.564;2022-11-11T06:33:34;42.85;;;22.58;;
56455;SDS011;42354;53.218;6.564;2022-11-11T06:36:00;41.53;;;21.48;;
56455;SDS011;42354;53.218;6.564;2022-11-11T06:38:26;44.72;;;22.13;;
56455;SDS011;42354;53.218;6.564;2022-11-11T06:40:52;47.55;;;23.30;;
56455;SDS011;42354;53.218;6.564;2022-11-11T06:43:17;41.63;;;22.05;;
56455;SDS011;42354;53.218;6.564;2022-11-11T06:45:42;39.53;;;22.42;;
56455;SDS011;42354;53.218;6.564;2022-11-11T06:48:09;41.53;;;22.50;;
56455;SDS011;42354;53.218;6.564;2022-11-11T06:50:35;46.97;;;23.77;;
56455;SDS011;42354;53.218;6.564;2022-11-11T06:53:04;46.63;;;24.50;;
56455;SDS011;42354;53.218;6.564;2022-11-11T06:55:34;42.35;;;23.92;;
56455;SDS011;42354;53.218;6.564;2022-11-11T06:58:06;48.38;;;24.30;;
56455;SDS011;42354;53.218;6.564;2022-11-11T07:00:33;47.78;;;24.17;;
56455;SDS011;42354;53.218;6.564;2022-11-11T07:02:59;49.03;;;24.38;;
56455;SDS011;42354;53.218;6.564;2022-11-11T07:05:25;45.38;;;24.02;;
56455;SDS011;42354;53.218;6.564;2022-11-11T07:07:50;55.00;;;25.35;;
56455;SDS011;42354;53.218;6.564;2022-11-11T07:10:15;47.65;;;25.10;;
56455;SDS011;42354;53.218;6.564;2022-11-11T07:12:41;46.70;;;24.85;;
56455;SDS011;42354;53.218;6.564;2022-11-11T07:15:07;50.33;;;25.10;;
56455;SDS011;42354;53.218;6.564;2022-11-11T07:17:34;46.10;;;24.95;;
56455;SDS011;42354;53.218;6.564;2022-11-11T07:20:01;43.78;;;23.30;;
56455;SDS011;42354;53.218;6.564;2022-11-11T07:22:27;55.60;;;24.98;;
56455;SDS011;42354;53.218;6.564;2022-11-11T07:24:53;41.53;;;25.65;;
56455;SDS011;42354;53.218;6.564;2022-11-11T07:27:18;45.50;;;23.42;;
56455;SDS011;42354;53.218;6.564;2022-11-11T07:29:44;48.22;;;24.00;;
56455;SDS011;42354;53.218;6.564;2022-11-11T07:32:09;53.15;;;25.23;;
56455;SDS011;42354;53.218;6.564;2022-11-11T07:34:34;53.95;;;25.45;;
56455;SDS011;42354;53.218;6.564;2022-11-11T07:37:00;49.10;;;26.10;;
56455;SDS011;42354;53.218;6.564;2022-11-11T07:39:25;52.67;;;24.88;;
56455;SDS011;42354;53.218;6.564;2022-11-11T07:41:50;45.22;;;24.50;;
56455;SDS011;42354;53.218;6.564;2022-11-11T07:44:16;44.65;;;24.10;;
56455;SDS011;42354;53.218;6.564;2022-11-11T07:46:41;46.50;;;24.65;;
56455;SDS011;42354;53.218;6.564;2022-11-11T07:49:07;44.22;;;22.83;;
56455;SDS011;42354;53.218;6.564;2022-11-11T07:51:32;46.60;;;24.33;;
56455;SDS011;42354;53.218;6.564;2022-11-11T07:53:57;46.72;;;23.67;;
56455;SDS011;42354;53.218;6.564;2022-11-11T07:56:23;42.92;;;23.63;;
56455;SDS011;42354;53.218;6.564;2022-11-11T07:58:48;42.28;;;23.20;;
56455;SDS011;42354;53.218;6.564;2022-11-11T08:01:13;43.88;;;23.80;;
56455;SDS011;42354;53.218;6.564;2022-11-11T08:03:38;42.17;;;23.02;;
56455;SDS011;42354;53.218;6.564;2022-11-11T08:06:14;41.92;;;22.95;;
56455;SDS011;42354;53.218;6.564;2022-11-11T08:08:41;42.20;;;23.58;;
56455;SDS011;42354;53.218;6.564;2022-11-11T08:11:06;46.17;;;23.30;;
56455;SDS011;42354;53.218;6.564;2022-11-11T08:13:31;48.60;;;24.35;;
56455;SDS011;42354;53.218;6.564;2022-11-11T08:16:11;48.78;;;24.38;;
56455;SDS011;42354;53.218;6.564;2022-11-11T08:18:39;46.60;;;22.27;;
56455;SDS011;42354;53.218;6.564;2022-11-11T08:21:05;44.13;;;22.83;;
56455;SDS011;42354;53.218;6.564;2022-11-11T08:23:30;41.30;;;22.55;;
56455;SDS011;42354;53.218;6.564;2022-11-11T08:26:01;42.72;;;23.02;;
56455;SDS011;42354;53.218;6.564;2022-11-11T08:28:30;40.83;;;22.27;;
56455;SDS011;42354;53.218;6.564;2022-11-11T08:30:57;38.53;;;22.52;;
56455;SDS011;42354;53.218;6.564;2022-11-11T08:33:25;45.47;;;22.52;;
56455;SDS011;42354;53.218;6.564;2022-11-11T08:35:51;45.10;;;22.75;;
56455;SDS011;42354;53.218;6.564;2022-11-11T08:38:22;48.17;;;22.45;;
56455;SDS011;42354;53.218;6.564;2022-11-11T08:40:48;43.92;;;22.02;;
56455;SDS011;42354;53.218;6.564;2022-11-11T08:43:15;43.17;;;21.77;;
56455;SDS011;42354;53.218;6.564;2022-11-11T08:45:40;39.55;;;23.33;;
56455;SDS011;42354;53.218;6.564;2022-11-11T08:48:06;40.40;;;21.73;;
56455;SDS011;42354;53.218;6.564;2022-11-11T08:50:34;44.42;;;22.38;;
56455;SDS011;42354;53.218;6.564;2022-11-11T08:53:01;40.30;;;22.63;;
56455;SDS011;42354;53.218;6.564;2022-11-11T08:55:26;39.28;;;22.33;;
56455;SDS011;42354;53.218;6.564;2022-11-11T08:57:58;39.58;;;21.55;;
56455;SDS011;42354;53.218;6.564;2022-11-11T09:00:25;46.40;;;21.80;;
56455;SDS011;42354;53.218;6.564;2022-11-11T09:02:50;43.78;;;22.75;;
56455;SDS011;42354;53.218;6.564;2022-11-11T09:05:16;39.15;;;22.67;;
56455;SDS011;42354;53.218;6.564;2022-11-11T09:07:42;43.65;;;22.27;;
56455;SDS011;42354;53.218;6.564;2022-11-11T09:10:08;39.33;;;21.60;;
56455;SDS011;42354;53.218;6.564;2022-11-11T09:12:34;37.60;;;20.67;;
56455;SDS011;42354;53.218;6.564;2022-11-11T09:14:59;37.42;;;22.73;;
56455;SDS011;42354;53.218;6.564;2022-11-11T09:17:26;40.42;;;21.27;;
56455;SDS011;42354;53.218;6.564;2022-11-11T09:19:51;44.97;;;21.73;;
56455;SDS011;42354;53.218;6.564;2022-11-11T09:22:17;39.10;;;21.02;;
56455;SDS011;42354;53.218;6.564;2022-11-11T09:24:42;41.97;;;21.25;;
56455;SDS011;42354;53.218;6.564;2022-11-11T09:27:08;39.92;;;21.63;;
56455;SDS011;42354;53.218;6.564;2022-11-11T09:29:34;39.85;;;21.25;;
56455;SDS011;42354;53.218;6.564;2022-11-11T09:31:59;39.28;;;20.30;;
56455;SDS011;42354;53.218;6.564;2022-11-11T09:34:25;39.80;;;20.45;;
56455;SDS011;42354;53.218;6.564;2022-11-11T09:36:50;38.30;;;21.90;;
56455;SDS011;42354;53.218;6.564;2022-11-11T09:39:15;39.22;;;20.15;;
56455;SDS011;42354;53.218;6.564;2022-11-11T09:41:50;38.30;;;21.20;;
56455;SDS011;42354;53.218;6.564;2022-11-11T09:44:33;39.25;;;22.02;;
56455;SDS011;42354;53.218;6.564;2022-11-11T09:50:11;41.08;;;21.25;;
56455;SDS011;42354;53.218;6.564;2022-11-11T09:52:42;36.75;;;20.92;;
56455;SDS011;42354;53.218;6.564;2022-11-11T09:58:10;37.33;;;22.75;;
56455;SDS011;42354;53.218;6.564;2022-11-11T10:00:41;32.88;;;19.27;;
56455;SDS011;42354;53.218;6.564;2022-11-11T10:03:15;37.05;;;20.25;;
56455;SDS011;42354;53.218;6.564;2022-11-11T10:05:44;36.20;;;21.07;;
56455;SDS011;42354;53.218;6.564;2022-11-11T10:10:48;34.33;;;19.42;;
56455;SDS011;42354;53.218;6.564;2022-11-11T10:13:16;35.45;;;19.10;;
56455;SDS011;42354;53.218;6.564;2022-11-11T10:15:57;41.80;;;20.92;;
56455;SDS011;42354;53.218;6.564;2022-11-11T10:21:31;41.42;;;20.05;;
56455;SDS011;42354;53.218;6.564;2022-11-11T10:24:10;32.33;;;20.05;;
56455;SDS011;42354;53.218;6.564;2022-11-11T10:26:41;33.60;;;18.80;;
56455;SDS011;42354;53.218;6.564;2022-11-11T10:29:12;34.67;;;19.15;;
56455;SDS011;42354;53.218;6.564;2022-11-11T10:31:43;38.67;;;20.70;;
56455;SDS011;42354;53.218;6.564;2022-11-11T10:34:15;35.72;;;19.52;;
56455;SDS011;42354;53.218;6.564;2022-11-11T10:36:45;36.10;;;18.90;;
56455;SDS011;42354;53.218;6.564;2022-11-11T10:39:20;38.78;;;21.45;;
56455;SDS011;42354;53.218;6.564;2022-11-11T10:41:49;37.85;;;19.85;;
56455;SDS011;42354;53.218;6.564;2022-11-11T10:49:37;38.03;;;20.77;;
56455;SDS011;42354;53.218;6.564;2022-11-11T10:52:14;36.55;;;19.45;;
56455;SDS011;42354;53.218;6.564;2022-11-11T10:58:29;36.08;;;19.25;;
56455;SDS011;42354;53.218;6.564;2022-11-11T11:00:24;34.15;;;19.85;;
56455;SDS011;42354;53.218;6.564;2022-11-11T11:05:47;33.47;;;18.63;;
56455;SDS011;42354;53.218;6.564;2022-11-11T11:08:16;34.33;;;18.23;;
56455;SDS011;42354;53.218;6.564;2022-11-11T11:10:48;39.33;;;20.98;;
56455;SDS011;42354;53.218;6.564;2022-11-11T11:16:21;31.52;;;18.58;;
56455;SDS011;42354;53.218;6.564;2022-11-11T11:22:02;30.30;;;17.60;;
56455;SDS011;42354;53.218;6.564;2022-11-11T11:24:30;35.58;;;17.98;;
56455;SDS011;42354;53.218;6.564;2022-11-11T11:27:00;30.60;;;18.77;;
56455;SDS011;42354;53.218;6.564;2022-11-11T11:29:32;35.15;;;18.45;;
56455;SDS011;42354;53.218;6.564;2022-11-11T11:37:16;33.95;;;17.55;;
56455;SDS011;42354;53.218;6.564;2022-11-11T11:39:43;30.30;;;17.83;;
56455;SDS011;42354;53.218;6.564;2022-11-11T11:42:22;29.30;;;17.63;;
56455;SDS011;42354;53.218;6.564;2022-11-11T11:44:51;29.17;;;17.50;;
56455;SDS011;42354;53.218;6.564;2022-11-11T12:01:50;27.70;;;17.15;;
56455;SDS011;42354;53.218;6.564;2022-11-11T12:04:27;33.83;;;17.80;;
56455;SDS011;42354;53.218;6.564;2022-11-11T12:09:53;28.52;;;16.17;;
56455;SDS011;42354;53.218;6.564;2022-11-11T12:20:40;30.73;;;16.55;;
56455;SDS011;42354;53.218;6.564;2022-11-11T12:23:29;28.73;;;16.17;;
56455;SDS011;42354;53.218;6.564;2022-11-11T12:26:06;32.33;;;17.42;;
56455;SDS011;42354;53.218;6.564;2022-11-11T12:37:15;28.17;;;16.55;;
56455;SDS011;42354;53.218;6.564;2022-11-11T12:42:36;30.25;;;16.60;;
56455;SDS011;42354;53.218;6.564;2022-11-11T12:45:22;31.58;;;17.58;;
56455;SDS011;42354;53.218;6.564;2022-11-11T12:53:42;30.50;;;17.05;;
56455;SDS011;42354;53.218;6.564;2022-11-11T13:07:40;30.70;;;17.58;;
56455;SDS011;42354;53.218;6.564;2022-11-11T13:15:37;33.42;;;17.15;;
56455;SDS011;42354;53.218;6.564;2022-11-11T13:18:07;31.52;;;17.35;;
56455;SDS011;42354;53.218;6.564;2022-11-11T13:20:50;31.00;;;17.25;;
56455;SDS011;42354;53.218;6.564;2022-11-11T13:23:21;25.88;;;15.05;;
56455;SDS011;42354;53.218;6.564;2022-11-11T13:25:47;32.67;;;16.90;;
56455;SDS011;42354;53.218;6.564;2022-11-11T13:28:23;31.02;;;17.35;;
56455;SDS011;42354;53.218;6.564;2022-11-11T13:33:44;30.50;;;17.02;;
56455;SDS011;42354;53.218;6.564;2022-11-11T13:36:24;33.97;;;19.52;;
56455;SDS011;42354;53.218;6.564;2022-11-11T13:38:53;34.60;;;18.73;;
56455;SDS011;42354;53.218;6.564;2022-11-11T13:43:55;34.45;;;18.80;;
56455;SDS011;42354;53.218;6.564;2022-11-11T13:46:31;35.28;;;18.92;;
56455;SDS011;42354;53.218;6.564;2022-11-11T13:49:00;37.78;;;20.13;;
56455;SDS011;42354;53.218;6.564;2022-11-11T13:53:59;37.78;;;19.52;;
56455;SDS011;42354;53.218;6.564;2022-11-11T13:56:36;34.42;;;19.90;;
56455;SDS011;42354;53.218;6.564;2022-11-11T13:59:04;40.92;;;20.13;;
56455;SDS011;42354;53.218;6.564;2022-11-11T14:01:34;36.55;;;19.38;;
56455;SDS011;42354;53.218;6.564;2022-11-11T14:04:03;40.05;;;19.95;;
56455;SDS011;42354;53.218;6.564;2022-11-11T14:08:56;39.50;;;19.42;;
56455;SDS011;42354;53.218;6.564;2022-11-11T14:13:53;33.63;;;18.80;;
56455;SDS011;42354;53.218;6.564;2022-11-11T14:21:51;34.28;;;18.92;;
56455;SDS011;42354;53.218;6.564;2022-11-11T14:27:00;29.42;;;17.70;;
56455;SDS011;42354;53.218;6.564;2022-11-11T14:29:32;31.83;;;19.25;;
56455;SDS011;42354;53.218;6.564;2022-11-11T14:32:07;31.98;;;17.83;;
56455;SDS011;42354;53.218;6.564;2022-11-11T14:46:10;31.90;;;16.13;;
56455;SDS011;42354;53.218;6.564;2022-11-11T14:51:37;31.05;;;16.67;;
56455;SDS011;42354;53.218;6.564;2022-11-11T14:54:24;31.00;;;17.23;;
56455;SDS011;42354;53.218;6.564;2022-11-11T14:57:02;33.60;;;17.58;;
56455;SDS011;42354;53.218;6.564;2022-11-11T14:59:31;32.60;;;18.10;;
56455;SDS011;42354;53.218;6.564;2022-11-11T15:01:57;31.38;;;17.83;;
56455;SDS011;42354;53.218;6.564;2022-11-11T15:04:23;39.55;;;19.67;;
56455;SDS011;42354;53.218;6.564;2022-11-11T15:06:55;33.92;;;17.85;;
56455;SDS011;42354;53.218;6.564;2022-11-11T15:12:21;32.97;;;18.63;;
56455;SDS011;42354;53.218;6.564;2022-11-11T15:14:59;35.50;;;17.35;;
56455;SDS011;42354;53.218;6.564;2022-11-11T15:17:40;35.42;;;18.17;;
56455;SDS011;42354;53.218;6.564;2022-11-11T15:34:34;36.08;;;19.40;;
56455;SDS011;42354;53.218;6.564;2022-11-11T15:37:10;30.02;;;17.88;;
56455;SDS011;42354;53.218;6.564;2022-11-11T15:39:43;30.83;;;17.92;;
56455;SDS011;42354;53.218;6.564;2022-11-11T15:42:33;31.77;;;17.70;;
56455;SDS011;42354;53.218;6.564;2022-11-11T15:45:06;28.08;;;16.52;;
56455;SDS011;42354;53.218;6.564;2022-11-11T15:50:18;28.95;;;17.05;;
56455;SDS011;42354;53.218;6.564;2022-11-11T15:52:55;29.88;;;18.08;;
56455;SDS011;42354;53.218;6.564;2022-11-11T15:57:48;29.75;;;16.77;;
56455;SDS011;42354;53.218;6.564;2022-11-11T16:02:48;33.85;;;18.08;;
56455;SDS011;42354;53.218;6.564;2022-11-11T16:05:19;33.47;;;17.55;;
56455;SDS011;42354;53.218;6.564;2022-11-11T16:07:47;29.70;;;18.02;;
56455;SDS011;42354;53.218;6.564;2022-11-11T16:10:14;33.10;;;18.02;;
56455;SDS011;42354;53.218;6.564;2022-11-11T16:12:52;33.28;;;17.88;;
56455;SDS011;42354;53.218;6.564;2022-11-11T16:15:42;27.98;;;17.83;;
56455;SDS011;42354;53.218;6.564;2022-11-11T16:18:21;30.65;;;17.70;;
56455;SDS011;42354;53.218;6.564;2022-11-11T16:23:30;31.50;;;18.15;;
56455;SDS011;42354;53.218;6.564;2022-11-11T16:25:57;33.97;;;18.08;;
56455;SDS011;42354;53.218;6.564;2022-11-11T16:28:24;30.35;;;17.65;;
56455;SDS011;42354;53.218;6.564;2022-11-11T16:30:52;31.48;;;17.80;;
56455;SDS011;42354;53.218;6.564;2022-11-11T16:33:38;32.00;;;18.27;;
56455;SDS011;42354;53.218;6.564;2022-11-11T16:36:06;32.05;;;18.55;;
56455;SDS011;42354;53.218;6.564;2022-11-11T16:38:35;34.22;;;19.13;;
56455;SDS011;42354;53.218;6.564;2022-11-11T16:41:02;34.63;;;18.40;;
56455;SDS011;42354;53.218;6.564;2022-11-11T16:43:30;37.13;;;19.13;;
56455;SDS011;42354;53.218;6.564;2022-11-11T16:51:12;36.10;;;18.73;;
56455;SDS011;42354;53.218;6.564;2022-11-11T16:53:49;36.78;;;19.58;;
56455;SDS011;42354;53.218;6.564;2022-11-11T16:56:26;39.88;;;20.77;;
56455;SDS011;42354;53.218;6.564;2022-11-11T16:59:02;37.90;;;20.42;;
56455;SDS011;42354;53.218;6.564;2022-11-11T17:01:42;37.55;;;20.33;;
56455;SDS011;42354;53.218;6.564;2022-11-11T17:04:10;39.78;;;21.83;;
56455;SDS011;42354;53.218;6.564;2022-11-11T17:14:17;36.97;;;20.25;;
56455;SDS011;42354;53.218;6.564;2022-11-11T17:16:43;39.42;;;21.67;;
56455;SDS011;42354;53.218;6.564;2022-11-11T17:19:08;39.40;;;21.42;;
56455;SDS011;42354;53.218;6.564;2022-11-11T17:21:33;43.25;;;22.20;;
56455;SDS011;42354;53.218;6.564;2022-11-11T17:23:59;41.97;;;20.95;;
56455;SDS011;42354;53.218;6.564;2022-11-11T17:26:24;41.35;;;23.30;;
56455;SDS011;42354;53.218;6.564;2022-11-11T17:28:49;43.05;;;22.67;;
56455;SDS011;42354;53.218;6.564;2022-11-11T17:31:15;41.55;;;21.63;;
56455;SDS011;42354;53.218;6.564;2022-11-11T17:33:40;41.22;;;22.67;;
56455;SDS011;42354;53.218;6.564;2022-11-11T17:36:05;40.65;;;21.35;;
56455;SDS011;42354;53.218;6.564;2022-11-11T17:38:34;42.83;;;22.20;;
56455;SDS011;42354;53.218;6.564;2022-11-11T17:41:01;43.75;;;23.08;;